Погода Калкинина неделю

Кампече, Мексика

23 - 29 февраля
  • 23февраля
    Сегодня
    +17°
    +34°
    Ясно и безоблачно
    ВремяПогодаТемператураВлажностьДавлениеВетер, м/сВероятность осадков
    00:00Ясно и безоблачно+21°C64 %759 мм4.7 м/с2 %
    03:00Ясно и безоблачно+18°C68 %757 мм4.1 м/с2 %
    06:00Ясно и безоблачно+18°C76 %758 мм2.9 м/с2 %
    09:00Ясно и безоблачно+24°C53 %760 мм2.7 м/с2 %
    12:00Ясно и безоблачно+31°C32 %759 мм0.8 м/с2 %
    15:00Ясно и безоблачно+33°C28 %757 мм1.3 м/с2 %
    18:00Ясно и безоблачно+28°C42 %758 мм4.3 м/с2 %
    21:00Ясно и безоблачно+23°C68 %761 мм2.6 м/с2 %
  • 24февраля
    Суббота
    +15°
    +33°
    Практически безоблачно
    ВремяПогодаТемператураВлажностьДавлениеВетер, м/сВероятность осадков
    00:00Ясно и безоблачно+20°C91 %761 мм2.4 м/с2 %
    03:00Практически безоблачно+18°C98 %761 мм2.0 м/с2 %
    06:00Пасмурно, сплошная облачность+18°C98 %762 мм1.4 м/с2 %
    09:00Практически безоблачно+24°C68 %764 мм2.7 м/с10 %
    12:00Практически безоблачно+30°C42 %763 мм2.4 м/с4 %
    15:00Практически безоблачно+32°C33 %762 мм3.6 м/с2 %
    18:00Ясно и безоблачно+26°C53 %763 мм4.6 м/с2 %
    21:00Ясно и безоблачно+22°C68 %765 мм3.2 м/с2 %
  • 25февраля
    Воскресенье
    +17°
    +33°
    Ясно и безоблачно
    ВремяПогодаТемператураВлажностьДавлениеВетер, м/сВероятность осадков
    00:00Ясно и безоблачно+18°C82 %765 мм2.3 м/с2 %
    03:00Ясно и безоблачно+16°C90 %764 мм1.8 м/с2 %
    06:00Ясно и безоблачно+16°C94 %764 мм1.6 м/с2 %
    09:00Ясно и безоблачно+23°C55 %766 мм3.0 м/с2 %
    12:00Ясно и безоблачно+30°C31 %764 мм2.3 м/с2 %
    15:00Ясно и безоблачно+32°C26 %762 мм1.7 м/с2 %
    18:00Ясно и безоблачно+28°C35 %762 мм2.2 м/с2 %
    21:00Ясно и безоблачно+23°C60 %764 мм3.8 м/с2 %
  • 26февраля
    Понедельник
    +17°
    +34°
    Ясно и безоблачно
    ВремяПогодаТемператураВлажностьДавлениеВетер, м/сВероятность осадков
    00:00Ясно и безоблачно+20°C69 %764 мм3.7 м/с2 %
    03:00Ясно и безоблачно+18°C81 %763 мм3.0 м/с2 %
    06:00Ясно и безоблачно+17°C88 %763 мм3.0 м/с2 %
    09:00Ясно и безоблачно+24°C60 %764 мм3.6 м/с2 %
    12:00Ясно и безоблачно+31°C36 %763 мм2.7 м/с2 %
    15:00Ясно и безоблачно+33°C26 %760 мм2.5 м/с2 %
    18:00Ясно и безоблачно+29°C34 %760 мм2.7 м/с2 %
    21:00Ясно и безоблачно+25°C45 %762 мм3.0 м/с2 %
Мы используем cookies
Соглашаюсь